sensor_id;sensor_type;location;lat;lon;timestamp;temperature;humidity
212;DHT22;16228;48.800;9.002;2023-08-06T00:01:01;15.00;96.90
212;DHT22;16228;48.800;9.002;2023-08-06T00:03:28;14.90;96.90
212;DHT22;16228;48.800;9.002;2023-08-06T00:05:55;14.90;96.90
212;DHT22;16228;48.800;9.002;2023-08-06T00:08:22;14.80;96.90
212;DHT22;16228;48.800;9.002;2023-08-06T00:10:49;14.80;96.90
212;DHT22;16228;48.800;9.002;2023-08-06T00:13:17;14.70;96.90
212;DHT22;16228;48.800;9.002;2023-08-06T00:15:44;14.70;96.90
212;DHT22;16228;48.800;9.002;2023-08-06T00:18:11;14.70;96.90
212;DHT22;16228;48.800;9.002;2023-08-06T00:20:39;14.60;96.90
212;DHT22;16228;48.800;9.002;2023-08-06T00:23:06;14.50;96.90
212;DHT22;16228;48.800;9.002;2023-08-06T00:25:33;14.50;96.90
212;DHT22;16228;48.800;9.002;2023-08-06T00:28:00;14.40;96.90
212;DHT22;16228;48.800;9.002;2023-08-06T00:30:29;14.30;96.90
212;DHT22;16228;48.800;9.002;2023-08-06T00:32:56;14.20;96.90
212;DHT22;16228;48.800;9.002;2023-08-06T00:35:22;14.20;96.90
212;DHT22;16228;48.800;9.002;2023-08-06T00:37:49;14.10;96.90
212;DHT22;16228;48.800;9.002;2023-08-06T00:40:20;14.10;96.90
212;DHT22;16228;48.800;9.002;2023-08-06T00:42:47;14.00;96.90
212;DHT22;16228;48.800;9.002;2023-08-06T00:45:14;14.00;96.90
212;DHT22;16228;48.800;9.002;2023-08-06T00:47:42;14.00;96.90
212;DHT22;16228;48.800;9.002;2023-08-06T00:50:10;14.00;96.90
212;DHT22;16228;48.800;9.002;2023-08-06T00:52:37;13.90;96.90
212;DHT22;16228;48.800;9.002;2023-08-06T00:55:05;13.90;96.90
212;DHT22;16228;48.800;9.002;2023-08-06T00:57:32;13.80;96.90
212;DHT22;16228;48.800;9.002;2023-08-06T00:59:59;13.80;96.90
212;DHT22;16228;48.800;9.002;2023-08-06T01:02:26;13.80;96.90
212;DHT22;16228;48.800;9.002;2023-08-06T01:04:54;13.70;96.90
212;DHT22;16228;48.800;9.002;2023-08-06T01:07:33;13.70;96.90
212;DHT22;16228;48.800;9.002;2023-08-06T01:10:19;13.60;96.90
212;DHT22;16228;48.800;9.002;2023-08-06T01:13:02;13.60;96.90
212;DHT22;16228;48.800;9.002;2023-08-06T01:15:37;13.60;96.90
212;DHT22;16228;48.800;9.002;2023-08-06T01:18:06;13.60;96.90
212;DHT22;16228;48.800;9.002;2023-08-06T01:20:34;13.60;96.90
212;DHT22;16228;48.800;9.002;2023-08-06T01:23:01;13.60;96.90
212;DHT22;16228;48.800;9.002;2023-08-06T01:25:34;13.60;96.90
212;DHT22;16228;48.800;9.002;2023-08-06T01:28:10;13.60;96.90
212;DHT22;16228;48.800;9.002;2023-08-06T01:30:39;13.60;96.90
212;DHT22;16228;48.800;9.002;2023-08-06T01:33:09;13.50;96.90
212;DHT22;16228;48.800;9.002;2023-08-06T01:35:42;13.50;96.90
212;DHT22;16228;48.800;9.002;2023-08-06T01:38:09;13.50;96.90
212;DHT22;16228;48.800;9.002;2023-08-06T01:40:37;13.40;96.90
212;DHT22;16228;48.800;9.002;2023-08-06T01:43:03;13.40;96.90
212;DHT22;16228;48.800;9.002;2023-08-06T01:45:30;13.40;96.90
212;DHT22;16228;48.800;9.002;2023-08-06T01:47:57;13.40;96.90
212;DHT22;16228;48.800;9.002;2023-08-06T01:50:24;13.40;96.90
212;DHT22;16228;48.800;9.002;2023-08-06T01:52:53;13.40;96.90
212;DHT22;16228;48.800;9.002;2023-08-06T01:55:19;13.40;96.90
212;DHT22;16228;48.800;9.002;2023-08-06T01:57:46;13.30;96.90
212;DHT22;16228;48.800;9.002;2023-08-06T02:00:13;13.20;96.90
212;DHT22;16228;48.800;9.002;2023-08-06T02:02:40;13.20;96.90
212;DHT22;16228;48.800;9.002;2023-08-06T02:05:07;13.10;96.90
212;DHT22;16228;48.800;9.002;2023-08-06T02:07:34;13.10;96.90
212;DHT22;16228;48.800;9.002;2023-08-06T02:10:03;13.10;96.90
212;DHT22;16228;48.800;9.002;2023-08-06T02:12:30;13.00;96.90
212;DHT22;16228;48.800;9.002;2023-08-06T02:14:56;13.00;96.90
212;DHT22;16228;48.800;9.002;2023-08-06T02:17:23;13.00;96.90
212;DHT22;16228;48.800;9.002;2023-08-06T02:19:50;13.00;96.90
212;DHT22;16228;48.800;9.002;2023-08-06T02:22:17;13.00;96.90
212;DHT22;16228;48.800;9.002;2023-08-06T02:24:44;13.00;96.90
212;DHT22;16228;48.800;9.002;2023-08-06T02:27:13;13.00;96.90
212;DHT22;16228;48.800;9.002;2023-08-06T02:29:40;13.00;96.90
212;DHT22;16228;48.800;9.002;2023-08-06T02:32:07;13.00;96.90
212;DHT22;16228;48.800;9.002;2023-08-06T02:34:34;13.00;96.90
212;DHT22;16228;48.800;9.002;2023-08-06T02:37:01;13.00;96.90
212;DHT22;16228;48.800;9.002;2023-08-06T02:39:28;13.00;96.90
212;DHT22;16228;48.800;9.002;2023-08-06T02:41:55;13.00;96.90
212;DHT22;16228;48.800;9.002;2023-08-06T02:44:27;13.10;96.90
212;DHT22;16228;48.800;9.002;2023-08-06T02:46:54;13.20;96.90
212;DHT22;16228;48.800;9.002;2023-08-06T02:49:21;13.30;96.90
212;DHT22;16228;48.800;9.002;2023-08-06T02:51:48;13.30;96.90
212;DHT22;16228;48.800;9.002;2023-08-06T02:54:14;13.30;96.90
212;DHT22;16228;48.800;9.002;2023-08-06T02:56:43;13.40;96.90
212;DHT22;16228;48.800;9.002;2023-08-06T02:59:10;13.40;96.90
212;DHT22;16228;48.800;9.002;2023-08-06T03:01:38;13.40;96.90
212;DHT22;16228;48.800;9.002;2023-08-06T03:04:06;13.50;96.90
212;DHT22;16228;48.800;9.002;2023-08-06T03:06:33;13.50;96.90
212;DHT22;16228;48.800;9.002;2023-08-06T03:09:00;13.50;96.90
212;DHT22;16228;48.800;9.002;2023-08-06T03:11:28;13.60;96.90
212;DHT22;16228;48.800;9.002;2023-08-06T03:13:55;13.60;96.90
212;DHT22;16228;48.800;9.002;2023-08-06T03:16:21;13.70;96.90
212;DHT22;16228;48.800;9.002;2023-08-06T03:18:50;13.70;96.90
212;DHT22;16228;48.800;9.002;2023-08-06T03:21:17;13.80;96.90
212;DHT22;16228;48.800;9.002;2023-08-06T03:23:46;13.80;96.90
212;DHT22;16228;48.800;9.002;2023-08-06T03:26:13;13.80;96.90
212;DHT22;16228;48.800;9.002;2023-08-06T03:28:40;13.90;96.90
212;DHT22;16228;48.800;9.002;2023-08-06T03:31:07;13.90;96.90
212;DHT22;16228;48.800;9.002;2023-08-06T03:33:35;13.90;96.90
212;DHT22;16228;48.800;9.002;2023-08-06T03:36:03;13.90;96.90
212;DHT22;16228;48.800;9.002;2023-08-06T03:38:30;13.90;96.90
212;DHT22;16228;48.800;9.002;2023-08-06T03:40:57;13.90;96.90
212;DHT22;16228;48.800;9.002;2023-08-06T03:43:24;13.90;96.90
212;DHT22;16228;48.800;9.002;2023-08-06T03:45:51;13.90;96.90
212;DHT22;16228;48.800;9.002;2023-08-06T03:48:18;14.00;96.90
212;DHT22;16228;48.800;9.002;2023-08-06T03:50:45;14.00;96.90
212;DHT22;16228;48.800;9.002;2023-08-06T03:53:13;14.10;96.90
212;DHT22;16228;48.800;9.002;2023-08-06T03:55:40;14.20;96.90
212;DHT22;16228;48.800;9.002;2023-08-06T03:58:07;14.20;96.90
212;DHT22;16228;48.800;9.002;2023-08-06T04:00:34;14.20;96.90
212;DHT22;16228;48.800;9.002;2023-08-06T04:03:01;14.20;96.90
212;DHT22;16228;48.800;9.002;2023-08-06T04:05:31;14.20;96.90
212;DHT22;16228;48.800;9.002;2023-08-06T04:07:58;14.20;96.90
212;DHT22;16228;48.800;9.002;2023-08-06T04:10:26;14.20;96.90
212;DHT22;16228;48.800;9.002;2023-08-06T04:12:53;14.20;96.90
212;DHT22;16228;48.800;9.002;2023-08-06T04:15:20;14.30;96.90
212;DHT22;16228;48.800;9.002;2023-08-06T04:17:47;14.30;96.90
212;DHT22;16228;48.800;9.002;2023-08-06T04:20:14;14.30;96.90
212;DHT22;16228;48.800;9.002;2023-08-06T04:22:41;14.30;96.90
212;DHT22;16228;48.800;9.002;2023-08-06T04:25:09;14.30;96.90
212;DHT22;16228;48.800;9.002;2023-08-06T04:27:37;14.40;96.90
212;DHT22;16228;48.800;9.002;2023-08-06T04:30:07;14.40;96.90
212;DHT22;16228;48.800;9.002;2023-08-06T04:32:34;14.40;96.90
212;DHT22;16228;48.800;9.002;2023-08-06T04:35:02;14.40;96.90
212;DHT22;16228;48.800;9.002;2023-08-06T04:37:28;14.30;96.90
212;DHT22;16228;48.800;9.002;2023-08-06T04:39:55;14.30;96.90
212;DHT22;16228;48.800;9.002;2023-08-06T04:42:22;14.30;96.90
212;DHT22;16228;48.800;9.002;2023-08-06T04:44:51;14.30;96.90
212;DHT22;16228;48.800;9.002;2023-08-06T04:47:18;14.20;96.90
212;DHT22;16228;48.800;9.002;2023-08-06T04:49:45;14.10;96.90
212;DHT22;16228;48.800;9.002;2023-08-06T04:52:12;14.10;96.90
212;DHT22;16228;48.800;9.002;2023-08-06T04:54:39;14.10;96.90
212;DHT22;16228;48.800;9.002;2023-08-06T04:57:06;14.10;96.90
212;DHT22;16228;48.800;9.002;2023-08-06T04:59:33;14.10;96.90
212;DHT22;16228;48.800;9.002;2023-08-06T05:02:01;14.00;96.90
212;DHT22;16228;48.800;9.002;2023-08-06T05:04:28;14.00;96.90
212;DHT22;16228;48.800;9.002;2023-08-06T05:06:55;14.00;96.90
212;DHT22;16228;48.800;9.002;2023-08-06T05:09:22;14.00;96.90
212;DHT22;16228;48.800;9.002;2023-08-06T05:11:49;14.20;96.90
212;DHT22;16228;48.800;9.002;2023-08-06T05:14:16;14.20;96.90
212;DHT22;16228;48.800;9.002;2023-08-06T05:16:43;14.30;96.90
212;DHT22;16228;48.800;9.002;2023-08-06T05:19:11;14.40;96.90
212;DHT22;16228;48.800;9.002;2023-08-06T05:21:38;14.50;96.90
212;DHT22;16228;48.800;9.002;2023-08-06T05:24:05;14.60;96.90
212;DHT22;16228;48.800;9.002;2023-08-06T05:26:32;14.70;96.90
212;DHT22;16228;48.800;9.002;2023-08-06T05:29:00;14.90;96.90
212;DHT22;16228;48.800;9.002;2023-08-06T05:31:27;15.00;96.90
212;DHT22;16228;48.800;9.002;2023-08-06T05:33:54;15.20;96.90
212;DHT22;16228;48.800;9.002;2023-08-06T05:36:23;15.20;96.90
212;DHT22;16228;48.800;9.002;2023-08-06T05:38:50;15.30;96.90
212;DHT22;16228;48.800;9.002;2023-08-06T05:41:16;15.40;96.90
212;DHT22;16228;48.800;9.002;2023-08-06T05:43:43;15.50;96.90
212;DHT22;16228;48.800;9.002;2023-08-06T05:46:10;15.40;96.90
212;DHT22;16228;48.800;9.002;2023-08-06T05:48:37;15.40;96.90
212;DHT22;16228;48.800;9.002;2023-08-06T05:51:04;15.40;96.90
212;DHT22;16228;48.800;9.002;2023-08-06T05:53:33;15.30;96.90
212;DHT22;16228;48.800;9.002;2023-08-06T05:56:00;15.30;96.90
212;DHT22;16228;48.800;9.002;2023-08-06T05:58:27;15.30;96.90
212;DHT22;16228;48.800;9.002;2023-08-06T06:00:54;15.20;96.90
212;DHT22;16228;48.800;9.002;2023-08-06T06:03:21;15.20;96.90
212;DHT22;16228;48.800;9.002;2023-08-06T06:05:48;15.20;96.90
212;DHT22;16228;48.800;9.002;2023-08-06T06:08:15;15.30;96.90
212;DHT22;16228;48.800;9.002;2023-08-06T06:10:44;15.40;96.90
212;DHT22;16228;48.800;9.002;2023-08-06T06:13:10;15.40;96.90
212;DHT22;16228;48.800;9.002;2023-08-06T06:15:37;15.40;96.90
212;DHT22;16228;48.800;9.002;2023-08-06T06:18:04;15.40;96.90
212;DHT22;16228;48.800;9.002;2023-08-06T06:20:32;15.40;96.90
212;DHT22;16228;48.800;9.002;2023-08-06T06:22:59;15.50;96.90
212;DHT22;16228;48.800;9.002;2023-08-06T06:25:26;15.50;96.90
212;DHT22;16228;48.800;9.002;2023-08-06T06:27:54;15.50;96.90
212;DHT22;16228;48.800;9.002;2023-08-06T06:30:21;15.50;96.90
212;DHT22;16228;48.800;9.002;2023-08-06T06:32:48;15.50;96.90
212;DHT22;16228;48.800;9.002;2023-08-06T06:35:15;15.40;96.90
212;DHT22;16228;48.800;9.002;2023-08-06T06:37:42;15.40;96.90
212;DHT22;16228;48.800;9.002;2023-08-06T06:40:10;15.40;96.90
212;DHT22;16228;48.800;9.002;2023-08-06T06:42:37;15.50;96.90
212;DHT22;16228;48.800;9.002;2023-08-06T06:45:07;15.60;96.90
212;DHT22;16228;48.800;9.002;2023-08-06T06:47:34;15.50;96.90
212;DHT22;16228;48.800;9.002;2023-08-06T06:50:01;15.50;96.90
212;DHT22;16228;48.800;9.002;2023-08-06T06:52:29;15.50;96.90
212;DHT22;16228;48.800;9.002;2023-08-06T06:54:56;15.50;96.90
212;DHT22;16228;48.800;9.002;2023-08-06T06:57:22;15.50;96.90
212;DHT22;16228;48.800;9.002;2023-08-06T06:59:49;15.40;96.90
212;DHT22;16228;48.800;9.002;2023-08-06T07:02:18;15.40;96.90
212;DHT22;16228;48.800;9.002;2023-08-06T07:04:45;15.40;96.90
212;DHT22;16228;48.800;9.002;2023-08-06T07:07:12;15.40;96.90
212;DHT22;16228;48.800;9.002;2023-08-06T07:09:39;15.30;96.90
212;DHT22;16228;48.800;9.002;2023-08-06T07:12:06;15.30;96.90
212;DHT22;16228;48.800;9.002;2023-08-06T07:14:33;15.30;96.90
212;DHT22;16228;48.800;9.002;2023-08-06T07:17:00;15.30;96.90
212;DHT22;16228;48.800;9.002;2023-08-06T07:19:28;15.30;96.90
212;DHT22;16228;48.800;9.002;2023-08-06T07:21:56;15.40;96.90
212;DHT22;16228;48.800;9.002;2023-08-06T07:24:22;15.30;96.90
212;DHT22;16228;48.800;9.002;2023-08-06T07:26:49;15.40;96.90
212;DHT22;16228;48.800;9.002;2023-08-06T07:29:18;15.40;96.90
212;DHT22;16228;48.800;9.002;2023-08-06T07:31:47;15.50;96.90
212;DHT22;16228;48.800;9.002;2023-08-06T07:34:15;15.50;96.90
212;DHT22;16228;48.800;9.002;2023-08-06T07:36:45;15.60;96.90
212;DHT22;16228;48.800;9.002;2023-08-06T07:39:12;15.50;96.90
212;DHT22;16228;48.800;9.002;2023-08-06T07:41:39;15.50;96.90
212;DHT22;16228;48.800;9.002;2023-08-06T07:44:07;15.60;96.90
212;DHT22;16228;48.800;9.002;2023-08-06T07:46:33;15.60;96.90
212;DHT22;16228;48.800;9.002;2023-08-06T07:49:00;15.50;96.90
212;DHT22;16228;48.800;9.002;2023-08-06T07:51:31;15.50;96.90
212;DHT22;16228;48.800;9.002;2023-08-06T07:53:59;15.50;96.90
212;DHT22;16228;48.800;9.002;2023-08-06T07:56:26;15.60;96.90
212;DHT22;16228;48.800;9.002;2023-08-06T07:58:53;15.80;96.90
212;DHT22;16228;48.800;9.002;2023-08-06T08:01:20;16.00;96.90
212;DHT22;16228;48.800;9.002;2023-08-06T08:03:47;16.50;96.90
212;DHT22;16228;48.800;9.002;2023-08-06T08:06:14;17.00;96.90
212;DHT22;16228;48.800;9.002;2023-08-06T08:08:41;17.90;96.90
212;DHT22;16228;48.800;9.002;2023-08-06T08:11:09;18.40;96.90
212;DHT22;16228;48.800;9.002;2023-08-06T08:13:36;18.50;96.90
212;DHT22;16228;48.800;9.002;2023-08-06T08:16:03;18.50;96.90
212;DHT22;16228;48.800;9.002;2023-08-06T08:18:30;18.40;96.90
212;DHT22;16228;48.800;9.002;2023-08-06T08:20:57;18.10;96.90
212;DHT22;16228;48.800;9.002;2023-08-06T08:23:24;18.10;96.90
212;DHT22;16228;48.800;9.002;2023-08-06T08:25:51;18.00;96.90
212;DHT22;16228;48.800;9.002;2023-08-06T08:28:21;17.80;96.90
212;DHT22;16228;48.800;9.002;2023-08-06T08:30:48;17.40;96.90
212;DHT22;16228;48.800;9.002;2023-08-06T08:33:15;17.30;96.90
212;DHT22;16228;48.800;9.002;2023-08-06T08:35:42;17.20;96.90
212;DHT22;16228;48.800;9.002;2023-08-06T08:38:09;17.40;96.90
212;DHT22;16228;48.800;9.002;2023-08-06T08:40:42;17.60;96.90
212;DHT22;16228;48.800;9.002;2023-08-06T08:43:12;17.80;96.90
212;DHT22;16228;48.800;9.002;2023-08-06T08:45:42;18.10;96.90
212;DHT22;16228;48.800;9.002;2023-08-06T08:48:12;18.30;96.90
212;DHT22;16228;48.800;9.002;2023-08-06T08:50:40;18.50;96.90
212;DHT22;16228;48.800;9.002;2023-08-06T08:53:08;18.60;96.90
212;DHT22;16228;48.800;9.002;2023-08-06T08:55:36;18.50;96.90
212;DHT22;16228;48.800;9.002;2023-08-06T08:58:03;18.30;96.90
212;DHT22;16228;48.800;9.002;2023-08-06T09:00:31;18.10;96.90
212;DHT22;16228;48.800;9.002;2023-08-06T09:03:00;17.70;96.90
212;DHT22;16228;48.800;9.002;2023-08-06T09:05:29;17.50;96.90
212;DHT22;16228;48.800;9.002;2023-08-06T09:08:01;17.50;96.90
212;DHT22;16228;48.800;9.002;2023-08-06T09:10:29;17.30;96.90
212;DHT22;16228;48.800;9.002;2023-08-06T09:12:57;17.20;96.90
212;DHT22;16228;48.800;9.002;2023-08-06T09:15:25;17.20;96.90
212;DHT22;16228;48.800;9.002;2023-08-06T09:17:52;17.20;96.90
212;DHT22;16228;48.800;9.002;2023-08-06T09:20:21;17.10;96.90
212;DHT22;16228;48.800;9.002;2023-08-06T09:22:48;17.20;96.90
212;DHT22;16228;48.800;9.002;2023-08-06T09:25:21;17.40;96.90
212;DHT22;16228;48.800;9.002;2023-08-06T09:27:50;17.60;96.90
212;DHT22;16228;48.800;9.002;2023-08-06T09:30:29;17.80;96.90
212;DHT22;16228;48.800;9.002;2023-08-06T09:32:57;17.70;96.90
212;DHT22;16228;48.800;9.002;2023-08-06T09:35:28;17.50;96.90
212;DHT22;16228;48.800;9.002;2023-08-06T09:37:55;17.40;96.90
212;DHT22;16228;48.800;9.002;2023-08-06T09:40:26;17.50;96.90
212;DHT22;16228;48.800;9.002;2023-08-06T09:42:54;17.60;96.90
212;DHT22;16228;48.800;9.002;2023-08-06T09:45:21;17.60;96.90
212;DHT22;16228;48.800;9.002;2023-08-06T09:47:49;17.50;96.90
212;DHT22;16228;48.800;9.002;2023-08-06T09:50:17;17.40;96.90
212;DHT22;16228;48.800;9.002;2023-08-06T09:52:47;17.30;96.90
212;DHT22;16228;48.800;9.002;2023-08-06T09:55:14;17.20;96.90
212;DHT22;16228;48.800;9.002;2023-08-06T09:57:42;17.10;96.90
212;DHT22;16228;48.800;9.002;2023-08-06T10:00:10;17.20;96.90
212;DHT22;16228;48.800;9.002;2023-08-06T10:02:39;17.20;96.90
212;DHT22;16228;48.800;9.002;2023-08-06T10:05:08;17.30;96.90
212;DHT22;16228;48.800;9.002;2023-08-06T10:07:35;17.40;96.90
212;DHT22;16228;48.800;9.002;2023-08-06T10:10:07;17.60;96.90
212;DHT22;16228;48.800;9.002;2023-08-06T10:12:37;17.70;96.90
212;DHT22;16228;48.800;9.002;2023-08-06T10:15:09;17.60;96.90
212;DHT22;16228;48.800;9.002;2023-08-06T10:17:37;17.50;96.90
212;DHT22;16228;48.800;9.002;2023-08-06T10:20:07;17.50;96.90
212;DHT22;16228;48.800;9.002;2023-08-06T10:22:34;17.50;96.90
212;DHT22;16228;48.800;9.002;2023-08-06T10:25:02;17.50;96.90
212;DHT22;16228;48.800;9.002;2023-08-06T10:27:33;17.50;96.90
212;DHT22;16228;48.800;9.002;2023-08-06T10:30:20;17.60;96.90
212;DHT22;16228;48.800;9.002;2023-08-06T10:32:48;17.70;96.90
212;DHT22;16228;48.800;9.002;2023-08-06T10:35:34;17.90;96.90
212;DHT22;16228;48.800;9.002;2023-08-06T10:38:07;18.00;96.90
212;DHT22;16228;48.800;9.002;2023-08-06T10:40:35;18.10;96.90
212;DHT22;16228;48.800;9.002;2023-08-06T10:43:04;18.10;96.90
212;DHT22;16228;48.800;9.002;2023-08-06T10:45:34;18.00;96.90
212;DHT22;16228;48.800;9.002;2023-08-06T10:48:02;17.80;96.90
212;DHT22;16228;48.800;9.002;2023-08-06T10:50:30;17.70;96.90
212;DHT22;16228;48.800;9.002;2023-08-06T10:52:58;17.70;96.90
212;DHT22;16228;48.800;9.002;2023-08-06T10:55:30;17.70;96.90
212;DHT22;16228;48.800;9.002;2023-08-06T10:57:58;17.60;96.90
212;DHT22;16228;48.800;9.002;2023-08-06T11:00:26;17.40;96.90
212;DHT22;16228;48.800;9.002;2023-08-06T11:02:53;17.20;96.90
212;DHT22;16228;48.800;9.002;2023-08-06T11:05:20;17.00;96.90
212;DHT22;16228;48.800;9.002;2023-08-06T11:07:48;16.90;96.90
212;DHT22;16228;48.800;9.002;2023-08-06T11:10:16;16.80;96.90
212;DHT22;16228;48.800;9.002;2023-08-06T11:12:44;16.90;96.90
212;DHT22;16228;48.800;9.002;2023-08-06T11:15:11;17.20;96.90
212;DHT22;16228;48.800;9.002;2023-08-06T11:17:40;17.30;96.90
212;DHT22;16228;48.800;9.002;2023-08-06T11:20:09;17.40;96.90
212;DHT22;16228;48.800;9.002;2023-08-06T11:22:37;17.80;96.90
212;DHT22;16228;48.800;9.002;2023-08-06T11:25:06;18.30;96.90
212;DHT22;16228;48.800;9.002;2023-08-06T11:27:33;18.50;96.90
212;DHT22;16228;48.800;9.002;2023-08-06T11:30:00;18.30;96.90
212;DHT22;16228;48.800;9.002;2023-08-06T11:32:27;17.90;96.90
212;DHT22;16228;48.800;9.002;2023-08-06T11:34:56;17.40;96.90
212;DHT22;16228;48.800;9.002;2023-08-06T11:37:23;17.10;96.90
212;DHT22;16228;48.800;9.002;2023-08-06T11:39:52;16.90;96.90
212;DHT22;16228;48.800;9.002;2023-08-06T11:42:19;16.70;96.90
212;DHT22;16228;48.800;9.002;2023-08-06T11:44:46;16.70;96.90
212;DHT22;16228;48.800;9.002;2023-08-06T11:47:14;16.40;96.90
212;DHT22;16228;48.800;9.002;2023-08-06T11:49:44;16.40;96.90
212;DHT22;16228;48.800;9.002;2023-08-06T11:52:17;16.10;96.90
212;DHT22;16228;48.800;9.002;2023-08-06T11:54:45;16.10;96.90
212;DHT22;16228;48.800;9.002;2023-08-06T11:57:13;16.10;96.90
212;DHT22;16228;48.800;9.002;2023-08-06T11:59:40;15.90;96.90
212;DHT22;16228;48.800;9.002;2023-08-06T12:02:09;15.90;96.90
212;DHT22;16228;48.800;9.002;2023-08-06T12:05:01;16.00;96.90
212;DHT22;16228;48.800;9.002;2023-08-06T12:07:32;15.80;96.90
212;DHT22;16228;48.800;9.002;2023-08-06T12:09:59;15.70;96.90
212;DHT22;16228;48.800;9.002;2023-08-06T12:12:26;15.80;96.90
212;DHT22;16228;48.800;9.002;2023-08-06T12:14:54;15.90;96.90
212;DHT22;16228;48.800;9.002;2023-08-06T12:17:22;15.90;96.90
212;DHT22;16228;48.800;9.002;2023-08-06T12:19:49;16.00;96.90
212;DHT22;16228;48.800;9.002;2023-08-06T12:22:17;16.10;96.90
212;DHT22;16228;48.800;9.002;2023-08-06T12:24:46;16.10;96.90
212;DHT22;16228;48.800;9.002;2023-08-06T12:27:14;16.20;96.90
212;DHT22;16228;48.800;9.002;2023-08-06T12:29:42;16.30;96.90
212;DHT22;16228;48.800;9.002;2023-08-06T12:32:09;16.60;96.90
212;DHT22;16228;48.800;9.002;2023-08-06T12:34:38;16.80;96.90
212;DHT22;16228;48.800;9.002;2023-08-06T12:37:05;17.10;96.90
212;DHT22;16228;48.800;9.002;2023-08-06T12:39:33;17.60;96.90
212;DHT22;16228;48.800;9.002;2023-08-06T12:42:01;18.80;96.90
212;DHT22;16228;48.800;9.002;2023-08-06T12:44:29;20.30;96.90
212;DHT22;16228;48.800;9.002;2023-08-06T12:46:56;20.80;96.90
212;DHT22;16228;48.800;9.002;2023-08-06T12:49:25;20.30;96.90
212;DHT22;16228;48.800;9.002;2023-08-06T12:51:52;19.50;96.90
212;DHT22;16228;48.800;9.002;2023-08-06T12:54:20;19.00;96.90
212;DHT22;16228;48.800;9.002;2023-08-06T12:56:48;18.70;96.90
212;DHT22;16228;48.800;9.002;2023-08-06T12:59:18;18.50;96.90
212;DHT22;16228;48.800;9.002;2023-08-06T13:01:45;18.40;96.90
212;DHT22;16228;48.800;9.002;2023-08-06T13:04:14;18.90;96.90
212;DHT22;16228;48.800;9.002;2023-08-06T13:06:41;19.40;96.90
212;DHT22;16228;48.800;9.002;2023-08-06T13:09:08;19.70;96.90
212;DHT22;16228;48.800;9.002;2023-08-06T13:11:35;19.90;96.90
212;DHT22;16228;48.800;9.002;2023-08-06T13:14:07;20.00;96.90
212;DHT22;16228;48.800;9.002;2023-08-06T13:16:37;19.90;96.90
212;DHT22;16228;48.800;9.002;2023-08-06T13:19:04;19.70;96.90
212;DHT22;16228;48.800;9.002;2023-08-06T13:21:33;19.80;96.90
212;DHT22;16228;48.800;9.002;2023-08-06T13:24:01;19.50;96.90
212;DHT22;16228;48.800;9.002;2023-08-06T13:26:29;19.30;96.90
212;DHT22;16228;48.800;9.002;2023-08-06T13:28:57;18.90;96.90
212;DHT22;16228;48.800;9.002;2023-08-06T13:31:24;18.50;96.90
212;DHT22;16228;48.800;9.002;2023-08-06T13:33:53;18.30;96.90
212;DHT22;16228;48.800;9.002;2023-08-06T13:36:21;18.00;96.90
212;DHT22;16228;48.800;9.002;2023-08-06T13:38:48;17.90;96.90
212;DHT22;16228;48.800;9.002;2023-08-06T13:41:15;17.80;96.90
212;DHT22;16228;48.800;9.002;2023-08-06T13:43:42;17.70;96.90
212;DHT22;16228;48.800;9.002;2023-08-06T13:46:10;17.60;96.90
212;DHT22;16228;48.800;9.002;2023-08-06T13:48:41;17.50;96.90
212;DHT22;16228;48.800;9.002;2023-08-06T13:51:09;17.70;96.90
212;DHT22;16228;48.800;9.002;2023-08-06T13:53:36;18.10;96.90
212;DHT22;16228;48.800;9.002;2023-08-06T13:56:04;18.40;96.90
212;DHT22;16228;48.800;9.002;2023-08-06T13:58:31;18.50;96.90
212;DHT22;16228;48.800;9.002;2023-08-06T14:00:58;18.30;96.90
212;DHT22;16228;48.800;9.002;2023-08-06T14:03:25;18.20;96.90
212;DHT22;16228;48.800;9.002;2023-08-06T14:05:52;18.10;96.90
212;DHT22;16228;48.800;9.002;2023-08-06T14:08:22;17.90;96.90
212;DHT22;16228;48.800;9.002;2023-08-06T14:10:49;17.90;96.90
212;DHT22;16228;48.800;9.002;2023-08-06T14:13:16;18.30;96.90
212;DHT22;16228;48.800;9.002;2023-08-06T14:15:44;18.70;96.90
212;DHT22;16228;48.800;9.002;2023-08-06T14:18:12;18.90;96.90
212;DHT22;16228;48.800;9.002;2023-08-06T14:20:40;19.10;96.90
212;DHT22;16228;48.800;9.002;2023-08-06T14:23:07;19.30;96.90
212;DHT22;16228;48.800;9.002;2023-08-06T14:25:37;19.30;96.90
212;DHT22;16228;48.800;9.002;2023-08-06T14:28:05;19.30;96.90
212;DHT22;16228;48.800;9.002;2023-08-06T14:30:32;19.20;96.90
212;DHT22;16228;48.800;9.002;2023-08-06T14:33:00;19.00;96.90
212;DHT22;16228;48.800;9.002;2023-08-06T14:35:27;18.70;96.90
212;DHT22;16228;48.800;9.002;2023-08-06T14:37:54;18.40;96.90
212;DHT22;16228;48.800;9.002;2023-08-06T14:40:21;18.10;96.90
212;DHT22;16228;48.800;9.002;2023-08-06T14:42:50;17.90;96.90
212;DHT22;16228;48.800;9.002;2023-08-06T14:45:17;17.80;96.90
212;DHT22;16228;48.800;9.002;2023-08-06T14:47:44;17.70;96.90
212;DHT22;16228;48.800;9.002;2023-08-06T14:50:11;17.60;96.90
212;DHT22;16228;48.800;9.002;2023-08-06T14:52:38;17.40;96.90
212;DHT22;16228;48.800;9.002;2023-08-06T14:55:05;17.20;96.90
212;DHT22;16228;48.800;9.002;2023-08-06T14:57:32;16.90;96.90
212;DHT22;16228;48.800;9.002;2023-08-06T15:00:00;16.50;96.90
212;DHT22;16228;48.800;9.002;2023-08-06T15:02:27;16.40;96.90
212;DHT22;16228;48.800;9.002;2023-08-06T15:04:54;16.70;96.90
212;DHT22;16228;48.800;9.002;2023-08-06T15:07:21;17.00;96.90
212;DHT22;16228;48.800;9.002;2023-08-06T15:09:48;17.30;96.90
212;DHT22;16228;48.800;9.002;2023-08-06T15:12:15;17.50;96.90
212;DHT22;16228;48.800;9.002;2023-08-06T15:14:43;17.60;96.90
212;DHT22;16228;48.800;9.002;2023-08-06T15:17:11;17.90;96.90
212;DHT22;16228;48.800;9.002;2023-08-06T15:19:38;17.90;96.90
212;DHT22;16228;48.800;9.002;2023-08-06T15:22:05;17.90;96.90
212;DHT22;16228;48.800;9.002;2023-08-06T15:24:32;18.20;96.90
212;DHT22;16228;48.800;9.002;2023-08-06T15:27:02;18.30;96.90
212;DHT22;16228;48.800;9.002;2023-08-06T15:29:29;18.20;96.90
212;DHT22;16228;48.800;9.002;2023-08-06T15:31:56;18.30;96.90
212;DHT22;16228;48.800;9.002;2023-08-06T15:34:24;18.20;96.90
212;DHT22;16228;48.800;9.002;2023-08-06T15:36:51;18.10;96.90
212;DHT22;16228;48.800;9.002;2023-08-06T15:39:18;18.10;96.90
212;DHT22;16228;48.800;9.002;2023-08-06T15:41:45;18.20;96.90
212;DHT22;16228;48.800;9.002;2023-08-06T15:44:13;18.10;96.90
212;DHT22;16228;48.800;9.002;2023-08-06T15:46:40;18.00;96.90
212;DHT22;16228;48.800;9.002;2023-08-06T15:49:06;17.80;96.90
212;DHT22;16228;48.800;9.002;2023-08-06T15:51:35;17.80;96.90
212;DHT22;16228;48.800;9.002;2023-08-06T15:54:02;17.60;96.90
212;DHT22;16228;48.800;9.002;2023-08-06T15:56:29;17.50;96.90
212;DHT22;16228;48.800;9.002;2023-08-06T15:58:56;17.20;96.90
212;DHT22;16228;48.800;9.002;2023-08-06T16:01:23;17.20;96.90
212;DHT22;16228;48.800;9.002;2023-08-06T16:03:50;17.20;96.90
212;DHT22;16228;48.800;9.002;2023-08-06T16:06:17;17.30;96.90